EW7345 Guadalcanal ES current weather conditions

sailwx.info

Wind from 080 at 1 knots gusting 8

Air temperature 12.8° C
Dewpoint 10.5° C

Last reported at 2018-Apr-22 02:01 UTC.
Time now 2018-Apr-22 02:58 UTC

Location: N 38°10' W 005°44'.
View on Google Maps.

See reports from other nearby stations

  
Tides and Currents Weather Stations Pressure Air Temp Water Temp Dewpoint Dewpoint Depression Visibility Wind Speed Wind Dir Waves Ship Positions
date/time (UTC)wind fromknots sea level pressurealtimeterstation pressurevisibilityair tempwater tempwave heightnotes
2018-Apr-22 02:01 080 1 gusting 8 12.8
2018-Apr-22 01:46 073 8 gusting 14 12.8
2018-Apr-22 01:16 044 5 gusting 8 12.2
2018-Apr-22 00:46 042 2 gusting 11 12.2
2018-Apr-22 00:31 042 1 gusting 11 12.2
2018-Apr-22 00:01 029 5 gusting 11 12.2
2018-Apr-21 23:46 010 5 gusting 12 12.2
2018-Apr-21 23:31 321 8 gusting 13 12.2
2018-Apr-21 23:01 342 6 gusting 10 12.8
2018-Apr-21 22:31 337 3 gusting 13 13.3
2018-Apr-21 22:02 342 9 gusting 17 13.9
2018-Apr-21 21:46 337 6 gusting 14 13.9
2018-Apr-21 21:31 348 12 gusting 17 13.9
2018-Apr-21 21:01 309 7 gusting 13 14.4
2018-Apr-21 20:31 327 4 gusting 7 15.0
2018-Apr-21 20:01 355 4 gusting 7 15.6
2018-Apr-21 19:45 335 5 gusting 7 15.6
2018-Apr-21 19:16 005 3 gusting 7 16.1
2018-Apr-21 19:01 348 3 gusting 7 16.1
2018-Apr-21 18:31 228 0 gusting 4 16.7
2018-Apr-21 18:15 022 3 gusting 7 16.7
2018-Apr-21 17:46 029 6 gusting 9 16.7
2018-Apr-21 17:16 042 3 gusting 8 16.7
2018-Apr-21 17:01 053 5 gusting 11 17.2
2018-Apr-21 16:45 355 5 gusting 11 17.8
2018-Apr-21 16:16 048 3 gusting 13 17.8
2018-Apr-21 15:46 078 8 gusting 13 18.9
2018-Apr-21 15:30 022 4 gusting 8 18.3
2018-Apr-21 15:15 026 0 gusting 5 17.8
2018-Apr-21 14:46 347 4 gusting 7 16.7
2018-Apr-21 14:16 350 10 gusting 19 15.6
2018-Apr-21 14:01 333 10 gusting 13 15.6
2018-Apr-21 13:31 303 11 gusting 18 16.1
2018-Apr-21 13:15 291 13 gusting 21 16.7
2018-Apr-21 12:46 191 5 gusting 11 21.1
2018-Apr-21 12:16 011 2 gusting 6 20.0
2018-Apr-21 11:46 235 6 gusting 13 19.4
2018-Apr-21 11:16 220 5 gusting 9 18.3
2018-Apr-21 10:46 192 2 gusting 4 17.2
2018-Apr-21 10:16 101 15.6
2018-Apr-21 10:01 109 15.6
2018-Apr-21 09:45 072 2 gusting 7 15.0
2018-Apr-21 09:16 085 3 gusting 7 15.0
2018-Apr-21 08:46 078 4 gusting 10 14.4
2018-Apr-21 08:30 084 8 gusting 13 13.9
2018-Apr-21 08:01 098 6 gusting 12 12.8
2018-Apr-21 07:46 100 7 gusting 10 12.8
2018-Apr-21 07:31 084 6 gusting 14 12.2
2018-Apr-21 07:01 064 7 gusting 11 12.2
2018-Apr-21 06:45 071 6 gusting 11 12.2
2018-Apr-21 06:16 044 3 gusting 8 12.2
2018-Apr-21 06:01 021 5 gusting 6 12.8
2018-Apr-21 05:46 245 12.8
2018-Apr-21 05:16 088 12.8
2018-Apr-21 05:01 088 12.8
2018-Apr-21 04:31 096 12.8
2018-Apr-21 04:01 127 2 gusting 3 12.8
2018-Apr-21 03:31 032 3 gusting 5 13.3
2018-Apr-21 03:16 290 2 gusting 4 13.3
2018-Apr-21 03:00 271 1 gusting 5 13.3
2018-Apr-21 02:31 300 3 gusting 5 12.8
2018-Apr-21 02:15 281 5 gusting 8 12.8
2018-Apr-21 01:46 241 7 gusting 9 12.8
2018-Apr-21 01:30 267 1 gusting 3 12.8
2018-Apr-21 01:01 101 1 gusting 3 12.8
2018-Apr-21 00:45 094 1 gusting 5 12.8
2018-Apr-21 00:16 100 5 gusting 8 13.3
2018-Apr-21 00:01 109 6 gusting 10 13.3
2018-Apr-20 23:31 113 5 gusting 11 13.3
2018-Apr-20 23:16 125 5 gusting 10 13.9
2018-Apr-20 23:00 112 4 gusting 9 13.9
2018-Apr-20 22:31 102 3 gusting 6 13.9
2018-Apr-20 22:01 132 3 gusting 6 14.4
2018-Apr-20 21:31 128 3 gusting 6 14.4
2018-Apr-20 21:16 117 1 gusting 3 15.0
2018-Apr-20 21:01 142 2 gusting 6 15.0
2018-Apr-20 20:31 165 15.6
2018-Apr-20 20:01 139 15.6
2018-Apr-20 19:46 112 2 gusting 7 15.6
2018-Apr-20 19:16 146 1 gusting 7 16.1
2018-Apr-20 18:46 147 7 gusting 12 16.7
2018-Apr-20 18:31 134 6 gusting 9 17.2
2018-Apr-20 18:01 152 7 gusting 11 17.8
2018-Apr-20 17:30 171 8 gusting 12 18.9
2018-Apr-20 17:15 159 8 gusting 13 19.4
2018-Apr-20 17:00 147 7 gusting 12 20.0
2018-Apr-20 16:31 149 6 gusting 11 21.1
2018-Apr-20 16:01 141 6 gusting 12 21.1
2018-Apr-20 15:45 140 8 gusting 13 21.1
2018-Apr-20 15:16 161 7 gusting 12 20.6
2018-Apr-20 15:01 152 9 gusting 13 21.7
2018-Apr-20 14:31 123 8 gusting 13 21.7
2018-Apr-20 14:01 120 10 gusting 15 21.7
2018-Apr-20 13:31 129 6 gusting 18 21.7
2018-Apr-20 13:16 137 6 gusting 17 21.1
2018-Apr-20 12:46 138 13 gusting 17 21.1
2018-Apr-20 12:16 107 11 gusting 18 20.6
2018-Apr-20 12:01 129 12 gusting 17 20.6
2018-Apr-20 11:31 123 13 gusting 17 20.0
2018-Apr-20 11:01 153 9 gusting 18 18.9
2018-Apr-20 10:46 132 12 gusting 17 18.9
2018-Apr-20 10:16 127 5 gusting 14 18.3
2018-Apr-20 10:01 115 8 gusting 12 17.8
2018-Apr-20 09:45 094 6 gusting 10 17.2
2018-Apr-20 09:16 138 3 gusting 7 15.6
2018-Apr-20 09:01 107 4 gusting 6 15.0
2018-Apr-20 08:31 113 1 gusting 6 13.3
2018-Apr-20 08:01 079 3 gusting 6 12.8
2018-Apr-20 07:31 099 0 gusting 3 12.2
2018-Apr-20 07:01 099 11.1
2018-Apr-20 06:31 084 10.6
2018-Apr-20 06:15 105 1 gusting 6 10.0
2018-Apr-20 05:46 101 1 gusting 5 10.0
2018-Apr-20 05:16 113 1 gusting 5 10.0
2018-Apr-20 05:01 086 3 gusting 8 10.0
2018-Apr-20 04:45 116 4 gusting 7 10.0
2018-Apr-20 04:16 105 4 gusting 7 10.0
2018-Apr-20 03:46 089 4 gusting 8 10.6
2018-Apr-20 03:30 101 6 gusting 7 10.6
2018-Apr-20 03:01 121 4 gusting 9 10.6
2018-Apr-20 02:31 089 5 gusting 6 11.1
2018-Apr-20 02:01 086 2 gusting 6 11.7